<?xml version="1.0" encoding="UTF-8" standalone="no" ?>
<gpx xmlns="http://www.topografix.com/GPX/1/1" xmlns:xsi="http://www.w3.org/2001/XMLSchema-instance" xsi:schemaLocation="http://www.topografix.com/GPX/1/1 http://www.topografix.com/GPX/1/1/gpx.xsd" version="1.1" creator="VisuGPX - https://www.visugpx.com">
  <metadata>
    <name>Roche Courbe</name>
    <desc><![CDATA[Boucle au départ d\'Aspres les Corps]]></desc>
  </metadata>
  <trk>
    <name><![CDATA[Roche Courbe 3337 OT]]></name>
    <trkseg>
      <trkpt lat="44.80225" lon="5.98018">
        <ele>971.9</ele>
        <time>2014-07-05T07:52:23Z</time>
      </trkpt>
      <trkpt lat="44.80225" lon="5.98018">
        <ele>971.8</ele>
        <time>2014-07-05T07:52:24Z</time>
      </trkpt>
      <trkpt lat="44.80232" lon="5.97994">
        <ele>973.5</ele>
        <time>2014-07-05T07:53:34Z</time>
      </trkpt>
      <trkpt lat="44.80248" lon="5.98006">
        <ele>974</ele>
        <time>2014-07-05T07:54:43Z</time>
      </trkpt>
      <trkpt lat="44.8023" lon="5.9799">
        <ele>976.9</ele>
        <time>2014-07-05T07:55:02Z</time>
      </trkpt>
      <trkpt lat="44.80246" lon="5.98001">
        <ele>976.9</ele>
        <time>2014-07-05T07:55:54Z</time>
      </trkpt>
      <trkpt lat="44.80264" lon="5.98008">
        <ele>986.3</ele>
        <time>2014-07-05T07:56:08Z</time>
      </trkpt>
      <trkpt lat="44.80277" lon="5.98027">
        <ele>985.8</ele>
        <time>2014-07-05T07:56:41Z</time>
      </trkpt>
      <trkpt lat="44.80294" lon="5.98035">
        <ele>990.1</ele>
        <time>2014-07-05T07:57:08Z</time>
      </trkpt>
      <trkpt lat="44.80309" lon="5.98048">
        <ele>990</ele>
        <time>2014-07-05T07:57:37Z</time>
      </trkpt>
      <trkpt lat="44.80326" lon="5.9806">
        <ele>996.5</ele>
        <time>2014-07-05T07:58:07Z</time>
      </trkpt>
      <trkpt lat="44.80343" lon="5.98067">
        <ele>1000.9</ele>
        <time>2014-07-05T07:58:35Z</time>
      </trkpt>
      <trkpt lat="44.8036" lon="5.98078">
        <ele>1004.1</ele>
        <time>2014-07-05T07:59:11Z</time>
      </trkpt>
      <trkpt lat="44.80378" lon="5.98083">
        <ele>1005.5</ele>
        <time>2014-07-05T07:59:36Z</time>
      </trkpt>
      <trkpt lat="44.80397" lon="5.98087">
        <ele>1008.9</ele>
        <time>2014-07-05T07:59:58Z</time>
      </trkpt>
      <trkpt lat="44.80415" lon="5.98091">
        <ele>1012.5</ele>
        <time>2014-07-05T08:00:26Z</time>
      </trkpt>
      <trkpt lat="44.80432" lon="5.98083">
        <ele>1015.5</ele>
        <time>2014-07-05T08:00:57Z</time>
      </trkpt>
      <trkpt lat="44.80449" lon="5.98072">
        <ele>1016.3</ele>
        <time>2014-07-05T08:01:34Z</time>
      </trkpt>
      <trkpt lat="44.80467" lon="5.98069">
        <ele>1021.7</ele>
        <time>2014-07-05T08:02:02Z</time>
      </trkpt>
      <trkpt lat="44.80485" lon="5.98062">
        <ele>1027.8</ele>
        <time>2014-07-05T08:02:29Z</time>
      </trkpt>
      <trkpt lat="44.80502" lon="5.98051">
        <ele>1033.4</ele>
        <time>2014-07-05T08:03:02Z</time>
      </trkpt>
      <trkpt lat="44.80521" lon="5.98053">
        <ele>1039.1</ele>
        <time>2014-07-05T08:03:32Z</time>
      </trkpt>
      <trkpt lat="44.80536" lon="5.98039">
        <ele>1041.3</ele>
        <time>2014-07-05T08:05:54Z</time>
      </trkpt>
      <trkpt lat="44.80552" lon="5.98027">
        <ele>1057.9</ele>
        <time>2014-07-05T08:07:52Z</time>
      </trkpt>
      <trkpt lat="44.8057" lon="5.98021">
        <ele>1061.2</ele>
        <time>2014-07-05T08:09:19Z</time>
      </trkpt>
      <trkpt lat="44.80587" lon="5.9803">
        <ele>1058.7</ele>
        <time>2014-07-05T08:11:16Z</time>
      </trkpt>
      <trkpt lat="44.80578" lon="5.98008">
        <ele>1058.3</ele>
        <time>2014-07-05T08:12:45Z</time>
      </trkpt>
      <trkpt lat="44.80571" lon="5.98031">
        <ele>1057.7</ele>
        <time>2014-07-05T08:17:42Z</time>
      </trkpt>
      <trkpt lat="44.80554" lon="5.98043">
        <ele>1046.9</ele>
        <time>2014-07-05T08:18:22Z</time>
      </trkpt>
      <trkpt lat="44.80573" lon="5.9804">
        <ele>1058.4</ele>
        <time>2014-07-05T08:19:18Z</time>
      </trkpt>
      <trkpt lat="44.80591" lon="5.98045">
        <ele>1054.8</ele>
        <time>2014-07-05T08:19:50Z</time>
      </trkpt>
      <trkpt lat="44.80609" lon="5.98048">
        <ele>1056.1</ele>
        <time>2014-07-05T08:20:15Z</time>
      </trkpt>
      <trkpt lat="44.80606" lon="5.98023">
        <ele>1072.3</ele>
        <time>2014-07-05T08:21:13Z</time>
      </trkpt>
      <trkpt lat="44.80584" lon="5.97982">
        <ele>1076.5</ele>
        <time>2014-07-05T08:22:34Z</time>
      </trkpt>
      <trkpt lat="44.80567" lon="5.97936">
        <ele>1087.2</ele>
        <time>2014-07-05T08:23:55Z</time>
      </trkpt>
      <trkpt lat="44.80563" lon="5.97885">
        <ele>1102.5</ele>
        <time>2014-07-05T08:25:20Z</time>
      </trkpt>
      <trkpt lat="44.80579" lon="5.9785">
        <ele>1112.9</ele>
        <time>2014-07-05T08:26:55Z</time>
      </trkpt>
      <trkpt lat="44.80613" lon="5.97864">
        <ele>1123.5</ele>
        <time>2014-07-05T08:28:20Z</time>
      </trkpt>
      <trkpt lat="44.80648" lon="5.97874">
        <ele>1143.2</ele>
        <time>2014-07-05T08:30:21Z</time>
      </trkpt>
      <trkpt lat="44.80701" lon="5.9787">
        <ele>1158.1</ele>
        <time>2014-07-05T08:33:17Z</time>
      </trkpt>
      <trkpt lat="44.80709" lon="5.9782">
        <ele>1179.2</ele>
        <time>2014-07-05T08:35:00Z</time>
      </trkpt>
      <trkpt lat="44.80715" lon="5.9777">
        <ele>1189.1</ele>
        <time>2014-07-05T08:36:29Z</time>
      </trkpt>
      <trkpt lat="44.80747" lon="5.97741">
        <ele>1194.5</ele>
        <time>2014-07-05T08:40:54Z</time>
      </trkpt>
      <trkpt lat="44.80783" lon="5.97753">
        <ele>1221.6</ele>
        <time>2014-07-05T08:42:11Z</time>
      </trkpt>
      <trkpt lat="44.80817" lon="5.97765">
        <ele>1228.4</ele>
        <time>2014-07-05T08:43:35Z</time>
      </trkpt>
      <trkpt lat="44.80853" lon="5.97778">
        <ele>1251</ele>
        <time>2014-07-05T08:45:06Z</time>
      </trkpt>
      <trkpt lat="44.80885" lon="5.97803">
        <ele>1256.9</ele>
        <time>2014-07-05T08:46:14Z</time>
      </trkpt>
      <trkpt lat="44.80913" lon="5.97835">
        <ele>1257.9</ele>
        <time>2014-07-05T08:47:21Z</time>
      </trkpt>
      <trkpt lat="44.80931" lon="5.97879">
        <ele>1263</ele>
        <time>2014-07-05T08:48:25Z</time>
      </trkpt>
      <trkpt lat="44.80955" lon="5.97916">
        <ele>1269.3</ele>
        <time>2014-07-05T08:49:28Z</time>
      </trkpt>
      <trkpt lat="44.8099" lon="5.97902">
        <ele>1279.2</ele>
        <time>2014-07-05T08:50:44Z</time>
      </trkpt>
      <trkpt lat="44.81026" lon="5.97896">
        <ele>1295.7</ele>
        <time>2014-07-05T08:52:04Z</time>
      </trkpt>
      <trkpt lat="44.81062" lon="5.979">
        <ele>1313.5</ele>
        <time>2014-07-05T08:53:44Z</time>
      </trkpt>
      <trkpt lat="44.81051" lon="5.97842">
        <ele>1330.6</ele>
        <time>2014-07-05T09:01:17Z</time>
      </trkpt>
      <trkpt lat="44.81027" lon="5.97803">
        <ele>1352</ele>
        <time>2014-07-05T09:02:41Z</time>
      </trkpt>
      <trkpt lat="44.81013" lon="5.97757">
        <ele>1356.8</ele>
        <time>2014-07-05T09:04:05Z</time>
      </trkpt>
      <trkpt lat="44.81015" lon="5.97705">
        <ele>1367.7</ele>
        <time>2014-07-05T09:05:40Z</time>
      </trkpt>
      <trkpt lat="44.8102" lon="5.97655">
        <ele>1381.2</ele>
        <time>2014-07-05T09:07:22Z</time>
      </trkpt>
      <trkpt lat="44.81019" lon="5.97603">
        <ele>1393.6</ele>
        <time>2014-07-05T09:08:39Z</time>
      </trkpt>
      <trkpt lat="44.81027" lon="5.97554">
        <ele>1406.5</ele>
        <time>2014-07-05T09:10:35Z</time>
      </trkpt>
      <trkpt lat="44.81027" lon="5.97477">
        <ele>1420.6</ele>
        <time>2014-07-05T09:15:12Z</time>
      </trkpt>
      <trkpt lat="44.81047" lon="5.97434">
        <ele>1430.9</ele>
        <time>2014-07-05T09:16:25Z</time>
      </trkpt>
      <trkpt lat="44.81073" lon="5.974">
        <ele>1444.2</ele>
        <time>2014-07-05T09:17:40Z</time>
      </trkpt>
      <trkpt lat="44.81097" lon="5.97363">
        <ele>1457.8</ele>
        <time>2014-07-05T09:19:11Z</time>
      </trkpt>
      <trkpt lat="44.81119" lon="5.97323">
        <ele>1476.5</ele>
        <time>2014-07-05T09:21:20Z</time>
      </trkpt>
      <trkpt lat="44.81142" lon="5.97283">
        <ele>1500.4</ele>
        <time>2014-07-05T09:25:14Z</time>
      </trkpt>
      <trkpt lat="44.81162" lon="5.97239">
        <ele>1506.1</ele>
        <time>2014-07-05T09:26:53Z</time>
      </trkpt>
      <trkpt lat="44.81188" lon="5.97203">
        <ele>1518</ele>
        <time>2014-07-05T09:28:12Z</time>
      </trkpt>
      <trkpt lat="44.81217" lon="5.97173">
        <ele>1523.8</ele>
        <time>2014-07-05T09:29:25Z</time>
      </trkpt>
      <trkpt lat="44.81239" lon="5.97176">
        <ele>1539.6</ele>
        <time>2014-07-05T09:31:14Z</time>
      </trkpt>
      <trkpt lat="44.81233" lon="5.97227">
        <ele>1552.9</ele>
        <time>2014-07-05T09:32:43Z</time>
      </trkpt>
      <trkpt lat="44.81235" lon="5.97278">
        <ele>1563.7</ele>
        <time>2014-07-05T09:34:20Z</time>
      </trkpt>
      <trkpt lat="44.8129" lon="5.97206">
        <ele>1573.1</ele>
        <time>2014-07-05T09:40:05Z</time>
      </trkpt>
      <trkpt lat="44.81302" lon="5.9716">
        <ele>1586.6</ele>
        <time>2014-07-05T09:41:14Z</time>
      </trkpt>
      <trkpt lat="44.81306" lon="5.9711">
        <ele>1593.2</ele>
        <time>2014-07-05T09:42:14Z</time>
      </trkpt>
      <trkpt lat="44.8131" lon="5.97085">
        <ele>1596.4</ele>
        <time>2014-07-05T09:42:47Z</time>
      </trkpt>
      <trkpt lat="44.81308" lon="5.97033">
        <ele>1606.5</ele>
        <time>2014-07-05T09:43:52Z</time>
      </trkpt>
      <trkpt lat="44.81302" lon="5.96983">
        <ele>1617.2</ele>
        <time>2014-07-05T09:45:43Z</time>
      </trkpt>
      <trkpt lat="44.81293" lon="5.96932">
        <ele>1625.8</ele>
        <time>2014-07-05T09:46:38Z</time>
      </trkpt>
      <trkpt lat="44.81291" lon="5.96906">
        <ele>1627.1</ele>
        <time>2014-07-05T09:47:12Z</time>
      </trkpt>
      <trkpt lat="44.81282" lon="5.96857">
        <ele>1630.5</ele>
        <time>2014-07-05T09:48:23Z</time>
      </trkpt>
      <trkpt lat="44.81294" lon="5.96834">
        <ele>1638.9</ele>
        <time>2014-07-05T09:50:15Z</time>
      </trkpt>
      <trkpt lat="44.81306" lon="5.96817">
        <ele>1649.9</ele>
        <time>2014-07-05T09:52:00Z</time>
      </trkpt>
      <trkpt lat="44.81321" lon="5.96807">
        <ele>1668.3</ele>
        <time>2014-07-05T09:53:41Z</time>
      </trkpt>
      <trkpt lat="44.813" lon="5.96764">
        <ele>1674.3</ele>
        <time>2014-07-05T09:54:47Z</time>
      </trkpt>
      <trkpt lat="44.81348" lon="5.96801">
        <ele>1679</ele>
        <time>2014-07-05T10:00:10Z</time>
      </trkpt>
      <trkpt lat="44.81362" lon="5.96818">
        <ele>1681.7</ele>
        <time>2014-07-05T10:00:38Z</time>
      </trkpt>
      <trkpt lat="44.81384" lon="5.96861">
        <ele>1684.2</ele>
        <time>2014-07-05T10:01:25Z</time>
      </trkpt>
      <trkpt lat="44.81393" lon="5.96883">
        <ele>1683.9</ele>
        <time>2014-07-05T10:01:45Z</time>
      </trkpt>
      <trkpt lat="44.81411" lon="5.96928">
        <ele>1684.8</ele>
        <time>2014-07-05T10:02:21Z</time>
      </trkpt>
      <trkpt lat="44.81416" lon="5.96953">
        <ele>1685.2</ele>
        <time>2014-07-05T10:02:39Z</time>
      </trkpt>
      <trkpt lat="44.81418" lon="5.96979">
        <ele>1686.2</ele>
        <time>2014-07-05T10:02:59Z</time>
      </trkpt>
      <trkpt lat="44.81422" lon="5.97029">
        <ele>1685.4</ele>
        <time>2014-07-05T10:04:39Z</time>
      </trkpt>
      <trkpt lat="44.81431" lon="5.97079">
        <ele>1689.5</ele>
        <time>2014-07-05T10:05:25Z</time>
      </trkpt>
      <trkpt lat="44.81435" lon="5.97104">
        <ele>1689.9</ele>
        <time>2014-07-05T10:05:46Z</time>
      </trkpt>
      <trkpt lat="44.81445" lon="5.97153">
        <ele>1694.6</ele>
        <time>2014-07-05T10:06:33Z</time>
      </trkpt>
      <trkpt lat="44.81452" lon="5.97177">
        <ele>1698.4</ele>
        <time>2014-07-05T10:07:03Z</time>
      </trkpt>
      <trkpt lat="44.81463" lon="5.97227">
        <ele>1705.9</ele>
        <time>2014-07-05T10:08:07Z</time>
      </trkpt>
      <trkpt lat="44.81476" lon="5.97274">
        <ele>1720.4</ele>
        <time>2014-07-05T10:09:32Z</time>
      </trkpt>
      <trkpt lat="44.81494" lon="5.97319">
        <ele>1733.7</ele>
        <time>2014-07-05T10:11:13Z</time>
      </trkpt>
      <trkpt lat="44.81553" lon="5.97378">
        <ele>1749</ele>
        <time>2014-07-05T10:16:47Z</time>
      </trkpt>
      <trkpt lat="44.81566" lon="5.97395">
        <ele>1751.9</ele>
        <time>2014-07-05T10:17:19Z</time>
      </trkpt>
      <trkpt lat="44.81582" lon="5.97441">
        <ele>1757.8</ele>
        <time>2014-07-05T10:18:36Z</time>
      </trkpt>
      <trkpt lat="44.81606" lon="5.97479">
        <ele>1758.8</ele>
        <time>2014-07-05T10:19:20Z</time>
      </trkpt>
      <trkpt lat="44.8162" lon="5.97496">
        <ele>1758.7</ele>
        <time>2014-07-05T10:19:39Z</time>
      </trkpt>
      <trkpt lat="44.81646" lon="5.97531">
        <ele>1754.7</ele>
        <time>2014-07-05T10:20:18Z</time>
      </trkpt>
      <trkpt lat="44.81659" lon="5.9755">
        <ele>1752.4</ele>
        <time>2014-07-05T10:20:46Z</time>
      </trkpt>
      <trkpt lat="44.81688" lon="5.97616">
        <ele>1760.1</ele>
        <time>2014-07-05T10:24:19Z</time>
      </trkpt>
      <trkpt lat="44.81714" lon="5.97651">
        <ele>1763.2</ele>
        <time>2014-07-05T10:25:07Z</time>
      </trkpt>
      <trkpt lat="44.81726" lon="5.9767">
        <ele>1766.4</ele>
        <time>2014-07-05T10:25:37Z</time>
      </trkpt>
      <trkpt lat="44.81743" lon="5.97716">
        <ele>1780.4</ele>
        <time>2014-07-05T10:27:07Z</time>
      </trkpt>
      <trkpt lat="44.81765" lon="5.97756">
        <ele>1792.7</ele>
        <time>2014-07-05T10:28:48Z</time>
      </trkpt>
      <trkpt lat="44.81816" lon="5.97826">
        <ele>1819.2</ele>
        <time>2014-07-05T10:33:32Z</time>
      </trkpt>
      <trkpt lat="44.81858" lon="5.97875">
        <ele>1844.5</ele>
        <time>2014-07-05T10:36:25Z</time>
      </trkpt>
      <trkpt lat="44.81892" lon="5.97935">
        <ele>1867.2</ele>
        <time>2014-07-05T10:39:28Z</time>
      </trkpt>
      <trkpt lat="44.81897" lon="5.98012">
        <ele>1866.2</ele>
        <time>2014-07-05T10:43:31Z</time>
      </trkpt>
      <trkpt lat="44.81903" lon="5.98064">
        <ele>1871.8</ele>
        <time>2014-07-05T10:44:31Z</time>
      </trkpt>
      <trkpt lat="44.81901" lon="5.9809">
        <ele>1873.6</ele>
        <time>2014-07-05T10:44:59Z</time>
      </trkpt>
      <trkpt lat="44.81902" lon="5.98141">
        <ele>1880.4</ele>
        <time>2014-07-05T10:46:18Z</time>
      </trkpt>
      <trkpt lat="44.81908" lon="5.98191">
        <ele>1882.1</ele>
        <time>2014-07-05T10:47:21Z</time>
      </trkpt>
      <trkpt lat="44.81912" lon="5.98242">
        <ele>1891.2</ele>
        <time>2014-07-05T10:48:54Z</time>
      </trkpt>
      <trkpt lat="44.81908" lon="5.98294">
        <ele>1899</ele>
        <time>2014-07-05T10:50:04Z</time>
      </trkpt>
      <trkpt lat="44.81913" lon="5.9837">
        <ele>1895.4</ele>
        <time>2014-07-05T10:57:22Z</time>
      </trkpt>
      <trkpt lat="44.81914" lon="5.98396">
        <ele>1894.2</ele>
        <time>2014-07-05T10:57:43Z</time>
      </trkpt>
      <trkpt lat="44.81914" lon="5.98448">
        <ele>1893.8</ele>
        <time>2014-07-05T10:58:26Z</time>
      </trkpt>
      <trkpt lat="44.81911" lon="5.98473">
        <ele>1896.2</ele>
        <time>2014-07-05T10:58:44Z</time>
      </trkpt>
      <trkpt lat="44.81904" lon="5.98524">
        <ele>1898</ele>
        <time>2014-07-05T10:59:31Z</time>
      </trkpt>
      <trkpt lat="44.819" lon="5.9855">
        <ele>1900.6</ele>
        <time>2014-07-05T10:59:53Z</time>
      </trkpt>
      <trkpt lat="44.81888" lon="5.98598">
        <ele>1907.8</ele>
        <time>2014-07-05T11:00:51Z</time>
      </trkpt>
      <trkpt lat="44.81886" lon="5.98623">
        <ele>1909.9</ele>
        <time>2014-07-05T11:01:17Z</time>
      </trkpt>
      <trkpt lat="44.81877" lon="5.98673">
        <ele>1918</ele>
        <time>2014-07-05T11:02:23Z</time>
      </trkpt>
      <trkpt lat="44.81867" lon="5.98722">
        <ele>1928.4</ele>
        <time>2014-07-05T11:03:42Z</time>
      </trkpt>
      <trkpt lat="44.81849" lon="5.98766">
        <ele>1939.1</ele>
        <time>2014-07-05T11:04:54Z</time>
      </trkpt>
      <trkpt lat="44.81824" lon="5.98806">
        <ele>1942.8</ele>
        <time>2014-07-05T11:05:53Z</time>
      </trkpt>
      <trkpt lat="44.81811" lon="5.98823">
        <ele>1945.3</ele>
        <time>2014-07-05T11:06:22Z</time>
      </trkpt>
      <trkpt lat="44.81795" lon="5.98893">
        <ele>1936.4</ele>
        <time>2014-07-05T12:01:24Z</time>
      </trkpt>
      <trkpt lat="44.81802" lon="5.99018">
        <ele>1888.3</ele>
        <time>2014-07-05T12:07:59Z</time>
      </trkpt>
      <trkpt lat="44.818" lon="5.99119">
        <ele>1855.2</ele>
        <time>2014-07-05T12:13:06Z</time>
      </trkpt>
      <trkpt lat="44.818" lon="5.99171">
        <ele>1839.6</ele>
        <time>2014-07-05T12:14:21Z</time>
      </trkpt>
      <trkpt lat="44.81795" lon="5.99221">
        <ele>1828.8</ele>
        <time>2014-07-05T12:15:26Z</time>
      </trkpt>
      <trkpt lat="44.8179" lon="5.99273">
        <ele>1813.8</ele>
        <time>2014-07-05T12:16:49Z</time>
      </trkpt>
      <trkpt lat="44.81792" lon="5.99375">
        <ele>1783.3</ele>
        <time>2014-07-05T12:29:34Z</time>
      </trkpt>
      <trkpt lat="44.81794" lon="5.99426">
        <ele>1766.4</ele>
        <time>2014-07-05T12:30:40Z</time>
      </trkpt>
      <trkpt lat="44.81792" lon="5.99477">
        <ele>1751.1</ele>
        <time>2014-07-05T12:32:57Z</time>
      </trkpt>
      <trkpt lat="44.81802" lon="5.99527">
        <ele>1748.4</ele>
        <time>2014-07-05T12:34:20Z</time>
      </trkpt>
      <trkpt lat="44.81825" lon="5.99568">
        <ele>1749.8</ele>
        <time>2014-07-05T12:35:00Z</time>
      </trkpt>
      <trkpt lat="44.81829" lon="5.99593">
        <ele>1749.1</ele>
        <time>2014-07-05T12:35:21Z</time>
      </trkpt>
      <trkpt lat="44.81829" lon="5.99646">
        <ele>1748.5</ele>
        <time>2014-07-05T12:35:59Z</time>
      </trkpt>
      <trkpt lat="44.81831" lon="5.99671">
        <ele>1750.6</ele>
        <time>2014-07-05T12:36:23Z</time>
      </trkpt>
      <trkpt lat="44.81806" lon="5.99739">
        <ele>1745.7</ele>
        <time>2014-07-05T12:40:07Z</time>
      </trkpt>
      <trkpt lat="44.81782" lon="5.99747">
        <ele>1725.3</ele>
        <time>2014-07-05T12:41:48Z</time>
      </trkpt>
      <trkpt lat="44.81769" lon="5.99794">
        <ele>1715.9</ele>
        <time>2014-07-05T12:42:34Z</time>
      </trkpt>
      <trkpt lat="44.81758" lon="5.99815">
        <ele>1710.6</ele>
        <time>2014-07-05T12:43:12Z</time>
      </trkpt>
      <trkpt lat="44.81747" lon="5.99864">
        <ele>1693.8</ele>
        <time>2014-07-05T12:44:26Z</time>
      </trkpt>
      <trkpt lat="44.81731" lon="5.99911">
        <ele>1683.1</ele>
        <time>2014-07-05T12:46:19Z</time>
      </trkpt>
      <trkpt lat="44.81706" lon="5.99948">
        <ele>1671</ele>
        <time>2014-07-05T12:47:25Z</time>
      </trkpt>
      <trkpt lat="44.81665" lon="5.99996">
        <ele>1659.9</ele>
        <time>2014-07-05T12:49:28Z</time>
      </trkpt>
      <trkpt lat="44.81651" lon="6.00013">
        <ele>1653.4</ele>
        <time>2014-07-05T12:49:58Z</time>
      </trkpt>
      <trkpt lat="44.81653" lon="5.99961">
        <ele>1641</ele>
        <time>2014-07-05T12:51:13Z</time>
      </trkpt>
      <trkpt lat="44.81661" lon="5.99911">
        <ele>1633.9</ele>
        <time>2014-07-05T12:51:59Z</time>
      </trkpt>
      <trkpt lat="44.81645" lon="5.99926">
        <ele>1628.1</ele>
        <time>2014-07-05T12:52:43Z</time>
      </trkpt>
      <trkpt lat="44.81622" lon="5.99965">
        <ele>1620.8</ele>
        <time>2014-07-05T12:53:27Z</time>
      </trkpt>
      <trkpt lat="44.8161" lon="5.99986">
        <ele>1616.4</ele>
        <time>2014-07-05T12:53:51Z</time>
      </trkpt>
      <trkpt lat="44.81589" lon="6.00027">
        <ele>1607.1</ele>
        <time>2014-07-05T12:54:46Z</time>
      </trkpt>
      <trkpt lat="44.8159" lon="6.00053">
        <ele>1603.7</ele>
        <time>2014-07-05T12:55:19Z</time>
      </trkpt>
      <trkpt lat="44.81577" lon="6.00093">
        <ele>1592.5</ele>
        <time>2014-07-05T12:56:29Z</time>
      </trkpt>
      <trkpt lat="44.81543" lon="6.00111">
        <ele>1582.7</ele>
        <time>2014-07-05T12:57:25Z</time>
      </trkpt>
      <trkpt lat="44.81525" lon="6.00112">
        <ele>1579.4</ele>
        <time>2014-07-05T12:57:48Z</time>
      </trkpt>
      <trkpt lat="44.81511" lon="6.00083">
        <ele>1627</ele>
        <time>2014-07-05T12:59:05Z</time>
      </trkpt>
      <trkpt lat="44.81506" lon="6.00088">
        <ele>1612</ele>
        <time>2014-07-05T13:00:11Z</time>
      </trkpt>
      <trkpt lat="44.81476" lon="6.00118">
        <ele>1586.2</ele>
        <time>2014-07-05T13:00:58Z</time>
      </trkpt>
      <trkpt lat="44.81458" lon="6.00121">
        <ele>1578.2</ele>
        <time>2014-07-05T13:02:04Z</time>
      </trkpt>
      <trkpt lat="44.81421" lon="6.00117">
        <ele>1578.2</ele>
        <time>2014-07-05T13:02:46Z</time>
      </trkpt>
      <trkpt lat="44.81403" lon="6.00118">
        <ele>1579.8</ele>
        <time>2014-07-05T13:03:02Z</time>
      </trkpt>
      <trkpt lat="44.81385" lon="6.00119">
        <ele>1581.3</ele>
        <time>2014-07-05T13:03:19Z</time>
      </trkpt>
      <trkpt lat="44.81348" lon="6.00122">
        <ele>1581.9</ele>
        <time>2014-07-05T13:03:57Z</time>
      </trkpt>
      <trkpt lat="44.8133" lon="6.0013">
        <ele>1583.6</ele>
        <time>2014-07-05T13:04:21Z</time>
      </trkpt>
      <trkpt lat="44.81293" lon="6.00144">
        <ele>1595.5</ele>
        <time>2014-07-05T13:05:13Z</time>
      </trkpt>
      <trkpt lat="44.81276" lon="6.00153">
        <ele>1600.2</ele>
        <time>2014-07-05T13:05:35Z</time>
      </trkpt>
      <trkpt lat="44.81242" lon="6.00171">
        <ele>1603</ele>
        <time>2014-07-05T13:06:26Z</time>
      </trkpt>
      <trkpt lat="44.81223" lon="6.00176">
        <ele>1608.2</ele>
        <time>2014-07-05T13:06:47Z</time>
      </trkpt>
      <trkpt lat="44.81187" lon="6.00182">
        <ele>1604.8</ele>
        <time>2014-07-05T13:07:35Z</time>
      </trkpt>
      <trkpt lat="44.81169" lon="6.00177">
        <ele>1601.7</ele>
        <time>2014-07-05T13:07:54Z</time>
      </trkpt>
      <trkpt lat="44.81127" lon="6.00165">
        <ele>1601</ele>
        <time>2014-07-05T13:09:46Z</time>
      </trkpt>
      <trkpt lat="44.8109" lon="6.00154">
        <ele>1602</ele>
        <time>2014-07-05T13:10:26Z</time>
      </trkpt>
      <trkpt lat="44.81069" lon="6.00149">
        <ele>1602</ele>
        <time>2014-07-05T13:10:50Z</time>
      </trkpt>
      <trkpt lat="44.81034" lon="6.00134">
        <ele>1602.6</ele>
        <time>2014-07-05T13:11:32Z</time>
      </trkpt>
      <trkpt lat="44.81016" lon="6.00128">
        <ele>1606.7</ele>
        <time>2014-07-05T13:11:55Z</time>
      </trkpt>
      <trkpt lat="44.80982" lon="6.00109">
        <ele>1617</ele>
        <time>2014-07-05T13:12:50Z</time>
      </trkpt>
      <trkpt lat="44.80965" lon="6.00098">
        <ele>1620.1</ele>
        <time>2014-07-05T13:13:18Z</time>
      </trkpt>
      <trkpt lat="44.80935" lon="6.00068">
        <ele>1630.5</ele>
        <time>2014-07-05T13:14:27Z</time>
      </trkpt>
      <trkpt lat="44.80905" lon="6.00041">
        <ele>1628.3</ele>
        <time>2014-07-05T13:16:47Z</time>
      </trkpt>
      <trkpt lat="44.80879" lon="6.0001">
        <ele>1613.6</ele>
        <time>2014-07-05T13:17:53Z</time>
      </trkpt>
      <trkpt lat="44.80859" lon="5.99966">
        <ele>1605.5</ele>
        <time>2014-07-05T13:18:54Z</time>
      </trkpt>
      <trkpt lat="44.80841" lon="5.9991">
        <ele>1587.8</ele>
        <time>2014-07-05T13:21:10Z</time>
      </trkpt>
      <trkpt lat="44.80806" lon="5.99894">
        <ele>1571.5</ele>
        <time>2014-07-05T13:23:05Z</time>
      </trkpt>
      <trkpt lat="44.8076" lon="5.99857">
        <ele>1554.9</ele>
        <time>2014-07-05T13:26:02Z</time>
      </trkpt>
      <trkpt lat="44.80726" lon="5.99836">
        <ele>1541.1</ele>
        <time>2014-07-05T13:26:58Z</time>
      </trkpt>
      <trkpt lat="44.80712" lon="5.99821">
        <ele>1532.2</ele>
        <time>2014-07-05T13:27:55Z</time>
      </trkpt>
      <trkpt lat="44.80682" lon="5.99794">
        <ele>1515.8</ele>
        <time>2014-07-05T13:28:55Z</time>
      </trkpt>
      <trkpt lat="44.80666" lon="5.9978">
        <ele>1505.3</ele>
        <time>2014-07-05T13:29:30Z</time>
      </trkpt>
      <trkpt lat="44.80635" lon="5.99757">
        <ele>1498.1</ele>
        <time>2014-07-05T13:31:24Z</time>
      </trkpt>
      <trkpt lat="44.80598" lon="5.99757">
        <ele>1485.5</ele>
        <time>2014-07-05T13:32:14Z</time>
      </trkpt>
      <trkpt lat="44.80581" lon="5.99765">
        <ele>1477.1</ele>
        <time>2014-07-05T13:32:45Z</time>
      </trkpt>
      <trkpt lat="44.8055" lon="5.99776">
        <ele>1463</ele>
        <time>2014-07-05T13:33:46Z</time>
      </trkpt>
      <trkpt lat="44.80545" lon="5.99825">
        <ele>1458</ele>
        <time>2014-07-05T13:34:29Z</time>
      </trkpt>
      <trkpt lat="44.80528" lon="5.99833">
        <ele>1451</ele>
        <time>2014-07-05T13:34:57Z</time>
      </trkpt>
      <trkpt lat="44.80491" lon="5.99833">
        <ele>1438</ele>
        <time>2014-07-05T13:35:41Z</time>
      </trkpt>
      <trkpt lat="44.80473" lon="5.99837">
        <ele>1431.4</ele>
        <time>2014-07-05T13:36:05Z</time>
      </trkpt>
      <trkpt lat="44.80419" lon="5.99853">
        <ele>1411.6</ele>
        <time>2014-07-05T13:38:11Z</time>
      </trkpt>
      <trkpt lat="44.80401" lon="5.9985">
        <ele>1404.6</ele>
        <time>2014-07-05T13:38:34Z</time>
      </trkpt>
      <trkpt lat="44.80364" lon="5.99849">
        <ele>1392.1</ele>
        <time>2014-07-05T13:39:19Z</time>
      </trkpt>
      <trkpt lat="44.80346" lon="5.99848">
        <ele>1387.5</ele>
        <time>2014-07-05T13:39:42Z</time>
      </trkpt>
      <trkpt lat="44.80309" lon="5.99845">
        <ele>1374.4</ele>
        <time>2014-07-05T13:40:29Z</time>
      </trkpt>
      <trkpt lat="44.80291" lon="5.99841">
        <ele>1369.5</ele>
        <time>2014-07-05T13:40:54Z</time>
      </trkpt>
      <trkpt lat="44.80235" lon="5.99841">
        <ele>1359.4</ele>
        <time>2014-07-05T13:43:07Z</time>
      </trkpt>
      <trkpt lat="44.80217" lon="5.99834">
        <ele>1354.7</ele>
        <time>2014-07-05T13:43:27Z</time>
      </trkpt>
      <trkpt lat="44.80183" lon="5.99815">
        <ele>1342.6</ele>
        <time>2014-07-05T13:44:11Z</time>
      </trkpt>
      <trkpt lat="44.80164" lon="5.99811">
        <ele>1340.2</ele>
        <time>2014-07-05T13:44:30Z</time>
      </trkpt>
      <trkpt lat="44.80127" lon="5.99798">
        <ele>1329.5</ele>
        <time>2014-07-05T13:45:13Z</time>
      </trkpt>
      <trkpt lat="44.80111" lon="5.99787">
        <ele>1315.6</ele>
        <time>2014-07-05T13:45:37Z</time>
      </trkpt>
      <trkpt lat="44.80087" lon="5.99748">
        <ele>1301.1</ele>
        <time>2014-07-05T13:46:18Z</time>
      </trkpt>
      <trkpt lat="44.8008" lon="5.99724">
        <ele>1296.8</ele>
        <time>2014-07-05T13:46:39Z</time>
      </trkpt>
      <trkpt lat="44.80064" lon="5.99678">
        <ele>1278.5</ele>
        <time>2014-07-05T13:47:32Z</time>
      </trkpt>
      <trkpt lat="44.80055" lon="5.99654">
        <ele>1277.9</ele>
        <time>2014-07-05T13:47:55Z</time>
      </trkpt>
      <trkpt lat="44.80045" lon="5.99604">
        <ele>1271.9</ele>
        <time>2014-07-05T13:48:38Z</time>
      </trkpt>
      <trkpt lat="44.80043" lon="5.99578">
        <ele>1268.2</ele>
        <time>2014-07-05T13:49:00Z</time>
      </trkpt>
      <trkpt lat="44.80038" lon="5.99527">
        <ele>1259.7</ele>
        <time>2014-07-05T13:49:50Z</time>
      </trkpt>
      <trkpt lat="44.80041" lon="5.99501">
        <ele>1249.3</ele>
        <time>2014-07-05T13:50:15Z</time>
      </trkpt>
      <trkpt lat="44.80058" lon="5.99429">
        <ele>1224.5</ele>
        <time>2014-07-05T13:52:50Z</time>
      </trkpt>
      <trkpt lat="44.80063" lon="5.99404">
        <ele>1222</ele>
        <time>2014-07-05T13:53:10Z</time>
      </trkpt>
      <trkpt lat="44.80061" lon="5.9934">
        <ele>1221.4</ele>
        <time>2014-07-05T13:55:12Z</time>
      </trkpt>
      <trkpt lat="44.80056" lon="5.99315">
        <ele>1212.3</ele>
        <time>2014-07-05T13:55:29Z</time>
      </trkpt>
      <trkpt lat="44.80048" lon="5.99263">
        <ele>1192</ele>
        <time>2014-07-05T13:56:03Z</time>
      </trkpt>
      <trkpt lat="44.80046" lon="5.99238">
        <ele>1184.2</ele>
        <time>2014-07-05T13:56:20Z</time>
      </trkpt>
      <trkpt lat="44.80047" lon="5.99212">
        <ele>1174.3</ele>
        <time>2014-07-05T13:56:38Z</time>
      </trkpt>
      <trkpt lat="44.80046" lon="5.99161">
        <ele>1167.8</ele>
        <time>2014-07-05T13:57:11Z</time>
      </trkpt>
      <trkpt lat="44.80044" lon="5.99135">
        <ele>1166.3</ele>
        <time>2014-07-05T13:57:26Z</time>
      </trkpt>
      <trkpt lat="44.80035" lon="5.99113">
        <ele>1172</ele>
        <time>2014-07-05T13:57:40Z</time>
      </trkpt>
      <trkpt lat="44.80004" lon="5.9908">
        <ele>1176.1</ele>
        <time>2014-07-05T13:58:13Z</time>
      </trkpt>
      <trkpt lat="44.7999" lon="5.99063">
        <ele>1176.5</ele>
        <time>2014-07-05T13:58:29Z</time>
      </trkpt>
      <trkpt lat="44.79979" lon="5.99042">
        <ele>1168</ele>
        <time>2014-07-05T13:58:49Z</time>
      </trkpt>
      <trkpt lat="44.79965" lon="5.98993">
        <ele>1156.3</ele>
        <time>2014-07-05T13:59:31Z</time>
      </trkpt>
      <trkpt lat="44.79956" lon="5.98971">
        <ele>1151.2</ele>
        <time>2014-07-05T13:59:52Z</time>
      </trkpt>
      <trkpt lat="44.79929" lon="5.98936">
        <ele>1147.6</ele>
        <time>2014-07-05T14:00:33Z</time>
      </trkpt>
      <trkpt lat="44.79942" lon="5.98917">
        <ele>1140.4</ele>
        <time>2014-07-05T14:03:40Z</time>
      </trkpt>
      <trkpt lat="44.79976" lon="5.98896">
        <ele>1136</ele>
        <time>2014-07-05T14:04:40Z</time>
      </trkpt>
      <trkpt lat="44.80015" lon="5.98892">
        <ele>1135</ele>
        <time>2014-07-05T14:05:36Z</time>
      </trkpt>
      <trkpt lat="44.80036" lon="5.98892">
        <ele>1134</ele>
        <time>2014-07-05T14:06:00Z</time>
      </trkpt>
      <trkpt lat="44.80075" lon="5.98896">
        <ele>1134</ele>
        <time>2014-07-05T14:06:40Z</time>
      </trkpt>
      <trkpt lat="44.80096" lon="5.9889">
        <ele>1134</ele>
        <time>2014-07-05T14:07:07Z</time>
      </trkpt>
      <trkpt lat="44.80134" lon="5.98873">
        <ele>1129</ele>
        <time>2014-07-05T14:07:55Z</time>
      </trkpt>
      <trkpt lat="44.80146" lon="5.98854">
        <ele>1135</ele>
        <time>2014-07-05T14:08:31Z</time>
      </trkpt>
      <trkpt lat="44.80159" lon="5.98802">
        <ele>1130</ele>
        <time>2014-07-05T14:09:23Z</time>
      </trkpt>
      <trkpt lat="44.80157" lon="5.98775">
        <ele>1137</ele>
        <time>2014-07-05T14:10:23Z</time>
      </trkpt>
      <trkpt lat="44.80194" lon="5.98716">
        <ele>1128</ele>
        <time>2014-07-05T14:13:27Z</time>
      </trkpt>
      <trkpt lat="44.80185" lon="5.98692">
        <ele>1125</ele>
        <time>2014-07-05T14:14:03Z</time>
      </trkpt>
      <trkpt lat="44.80183" lon="5.98637">
        <ele>1128</ele>
        <time>2014-07-05T14:15:03Z</time>
      </trkpt>
      <trkpt lat="44.80192" lon="5.98612">
        <ele>1126</ele>
        <time>2014-07-05T14:15:23Z</time>
      </trkpt>
      <trkpt lat="44.80187" lon="5.98558">
        <ele>1126</ele>
        <time>2014-07-05T14:16:22Z</time>
      </trkpt>
      <trkpt lat="44.80186" lon="5.98533">
        <ele>1115</ele>
        <time>2014-07-05T14:16:42Z</time>
      </trkpt>
      <trkpt lat="44.80186" lon="5.9848">
        <ele>1117</ele>
        <time>2014-07-05T14:17:28Z</time>
      </trkpt>
      <trkpt lat="44.80192" lon="5.98452">
        <ele>1119</ele>
        <time>2014-07-05T14:17:50Z</time>
      </trkpt>
      <trkpt lat="44.80166" lon="5.98393">
        <ele>1128</ele>
        <time>2014-07-05T14:20:00Z</time>
      </trkpt>
      <trkpt lat="44.80147" lon="5.98394">
        <ele>1128</ele>
        <time>2014-07-05T14:20:20Z</time>
      </trkpt>
      <trkpt lat="44.80127" lon="5.98355">
        <ele>1117</ele>
        <time>2014-07-05T14:21:00Z</time>
      </trkpt>
      <trkpt lat="44.80121" lon="5.98328">
        <ele>1120</ele>
        <time>2014-07-05T14:21:20Z</time>
      </trkpt>
      <trkpt lat="44.80117" lon="5.98299">
        <ele>1117</ele>
        <time>2014-07-05T14:21:40Z</time>
      </trkpt>
      <trkpt lat="44.80129" lon="5.98247">
        <ele>1116</ele>
        <time>2014-07-05T14:22:24Z</time>
      </trkpt>
      <trkpt lat="44.80134" lon="5.98215">
        <ele>1125</ele>
        <time>2014-07-05T14:22:50Z</time>
      </trkpt>
      <trkpt lat="44.80136" lon="5.9816">
        <ele>1115</ele>
        <time>2014-07-05T14:23:22Z</time>
      </trkpt>
      <trkpt lat="44.80138" lon="5.98131">
        <ele>1113</ele>
        <time>2014-07-05T14:23:42Z</time>
      </trkpt>
      <trkpt lat="44.80147" lon="5.98107">
        <ele>1119</ele>
        <time>2014-07-05T14:24:02Z</time>
      </trkpt>
    </trkseg>
  </trk>
</gpx>